Accueil
METAR-TAF:

METAR-TAF

Aéroports :

Seyresse

Dax, France

latitude: 43-41N, longitude: 001-04W, altitude: 32 m

Observation

Le bulletin a été fait il y a 40 minutes, à 23:00 UTC
Vent 5 kt de sud-ouest
Température 11°C
Humidité 76%
Pression 1013 hPa
Visibilité 10 km ou plus

METAR: LFBY 252300Z AUTO 22005KT 9999 // NSC 11/07 Q1013

Heure: 01:40 (23:40 UTC)

Prévision

Le bulletin a été fait il y a 15 heures et 40 minutes, à 08:00 UTC
Prévision valable du 25 à 09 UTC au 25 à 18 UTC
Vent 3 kt de sud-est
Visibilité 10 km ou plus
Nuages épars à une hauteur de 4500 ft
Evoluant progressivement
du 25 à 10 UTC au 25 à 12 UTC
Vent 10 kt de ouest/sud-ouest avec des rafales jusqu'à 25 kt

TAF: LFBY 250800Z 2509/2518 13003KT 9999 SCT045 BECMG 2510/2512 25010G25KT

Observations et prévisions météorologiques de plus de 4000 aéroports (messages METAR et TAF).

Les stations disponibles sont représentées par des disques jaunes et rouges sur la carte.

Passer la souris dessus pour voir le nom de la station.

Cliquer dessus pour voir les observations et prévisions météorologiques.

Pour changer de carte: cliquez sur les boutons verts avec une croix noire pour zoomer, sur le bouton vert avec un tiret pour effectuer un zoom arrière, ou sur les flèches vertes pour les cartes adjacentes.


METAR-TAF: